Time;durP1;ratioP1;P1;durP2;ratioP2;P2;SDS_P1;SDS_P2;PMS_P1;PMS_P2;Temp;Humidity;BMP_temperature;BMP_pressure;BME280_temperature;BME280_humidity;BME280_pressure;Samples;Min_cycle;Max_cycle;Signal;HPM_P1;HPM_P2
2024/02/25 00:01:23;;;;;;;2.20;0.60;;;8.00;76.90;;;;;;5027919;28;20032;-64
2024/02/25 00:03:49;;;;;;;0.30;0.30;;;8.00;76.80;;;;;;5028864;28;20120;-64
2024/02/25 00:06:15;;;;;;;0.95;0.52;;;8.00;76.80;;;;;;5028430;28;20030;-64
2024/02/25 00:08:41;;;;;;;0.40;0.40;;;8.00;76.80;;;;;;5028843;28;20075;-64
2024/02/25 00:11:07;;;;;;;0.57;0.55;;;8.00;76.80;;;;;;5030993;28;20059;-64
2024/02/25 00:13:33;;;;;;;0.65;0.20;;;8.00;77.00;;;;;;5031395;28;20025;-64
2024/02/25 00:15:59;;;;;;;0.60;0.40;;;8.00;77.00;;;;;;5028102;28;20376;-64
2024/02/25 00:18:25;;;;;;;0.40;0.38;;;8.00;77.20;;;;;;5028748;28;20033;-64
2024/02/25 00:20:51;;;;;;;1.60;0.50;;;8.00;77.20;;;;;;5027456;28;20038;-66
2024/02/25 00:23:17;;;;;;;0.95;0.50;;;8.00;77.30;;;;;;5018392;28;20138;-67
2024/02/25 00:25:44;;;;;;;0.52;0.32;;;8.00;77.30;;;;;;5021799;28;20042;-66
2024/02/25 00:28:10;;;;;;;4.75;0.50;;;8.00;77.50;;;;;;5031073;28;20025;-67
2024/02/25 00:30:36;;;;;;;2.55;0.38;;;7.90;77.60;;;;;;5031124;28;20034;-67
2024/02/25 00:33:02;;;;;;;0.80;0.60;;;8.00;77.80;;;;;;5031154;28;20380;-67
2024/02/25 00:35:28;;;;;;;0.63;0.63;;;8.00;77.80;;;;;;5031093;28;20029;-66
2024/02/25 00:37:54;;;;;;;1.45;0.68;;;8.00;77.90;;;;;;5017620;28;20029;-66
2024/02/25 00:40:20;;;;;;;0.90;0.63;;;8.00;77.90;;;;;;5026404;28;20079;-66
2024/02/25 00:42:46;;;;;;;0.63;0.30;;;8.00;77.90;;;;;;5031167;28;20030;-66
2024/02/25 00:45:12;;;;;;;0.40;0.40;;;8.00;77.90;;;;;;5030950;28;20034;-66
2024/02/25 00:47:38;;;;;;;0.30;0.30;;;8.10;78.00;;;;;;5033983;28;20049;-66
2024/02/25 00:50:05;;;;;;;0.73;0.50;;;8.10;78.00;;;;;;5031287;28;20028;-66
2024/02/25 00:52:33;;;;;;;0.57;0.40;;;8.10;78.20;;;;;;5030263;28;20043;-63
2024/02/25 00:55:00;;;;;;;2.33;0.70;;;8.00;78.20;;;;;;5035964;28;20029;-63
2024/02/25 00:57:26;;;;;;;0.38;0.38;;;8.00;78.20;;;;;;5034620;28;20504;-63
2024/02/25 00:59:52;;;;;;;2.15;0.90;;;8.10;78.30;;;;;;5036196;28;20428;-64
2024/02/25 01:02:18;;;;;;;0.82;0.43;;;8.10;78.30;;;;;;5029472;28;20102;-63
2024/02/25 01:04:44;;;;;;;1.00;0.30;;;8.00;78.20;;;;;;5032495;28;20021;-63
2024/02/25 01:07:11;;;;;;;0.40;0.40;;;8.10;78.30;;;;;;5026873;28;20030;-64
2024/02/25 01:09:37;;;;;;;2.05;0.50;;;8.10;78.30;;;;;;5031911;28;20037;-63
2024/02/25 01:12:04;;;;;;;0.40;0.30;;;8.00;78.40;;;;;;5031786;28;20033;-64
2024/02/25 01:14:30;;;;;;;0.80;0.45;;;8.00;78.60;;;;;;5067836;28;20021;-63
2024/02/25 01:16:56;;;;;;;0.20;0.20;;;8.00;78.70;;;;;;5027513;28;20049;-64
2024/02/25 01:19:22;;;;;;;0.50;0.43;;;8.10;78.70;;;;;;5039498;28;20535;-66
2024/02/25 01:21:48;;;;;;;0.38;0.32;;;8.00;78.80;;;;;;5034693;28;20022;-66
2024/02/25 01:24:14;;;;;;;0.30;0.30;;;8.00;79.00;;;;;;5034643;28;20022;-66
2024/02/25 01:26:40;;;;;;;1.35;0.73;;;7.90;79.10;;;;;;5036003;28;20037;-66
2024/02/25 01:29:10;;;;;;;1.45;0.75;;;7.90;79.40;;;;;;5031739;28;20361;-64
2024/02/25 01:31:46;;;;;;;1.15;0.50;;;7.90;79.60;;;;;;5029378;28;20322;-64
2024/02/25 01:34:12;;;;;;;0.50;0.50;;;7.90;79.80;;;;;;5027796;28;20147;-63
2024/02/25 01:36:41;;;;;;;0.73;0.60;;;7.80;79.80;;;;;;5026829;28;20495;-64
2024/02/25 01:39:11;;;;;;;1.38;0.50;;;7.80;79.90;;;;;;5031057;28;20029;-64
2024/02/25 01:41:37;;;;;;;0.68;0.40;;;7.80;80.20;;;;;;5031556;28;20033;-63
2024/02/25 01:44:03;;;;;;;0.75;0.50;;;7.70;80.40;;;;;;5031472;28;20543;-63
2024/02/25 01:46:29;;;;;;;3.97;0.30;;;7.70;80.50;;;;;;5032547;28;20096;-64
2024/02/25 01:48:56;;;;;;;1.20;0.60;;;7.80;80.70;;;;;;5031253;28;20481;-63
2024/02/25 01:51:24;;;;;;;1.23;0.50;;;7.70;80.70;;;;;;5029159;28;20430;-64
2024/02/25 01:53:50;;;;;;;3.95;0.73;;;7.70;80.90;;;;;;5036509;28;20111;-64
2024/02/25 01:56:20;;;;;;;0.50;0.50;;;7.70;81.10;;;;;;5029890;28;20025;-63
2024/02/25 01:58:47;;;;;;;0.77;0.43;;;7.70;81.30;;;;;;5041405;28;20034;-63
2024/02/25 02:01:14;;;;;;;0.52;0.52;;;7.70;81.40;;;;;;5032959;28;20042;-63
2024/02/25 02:03:43;;;;;;;0.30;0.30;;;7.70;81.40;;;;;;5028940;28;20041;-64
2024/02/25 02:06:10;;;;;;;1.15;0.68;;;7.70;81.40;;;;;;5031435;28;20539;-64
2024/02/25 02:08:39;;;;;;;0.75;0.40;;;7.70;81.40;;;;;;5030927;28;20029;-64
2024/02/25 02:11:18;;;;;;;0.40;0.40;;;7.70;81.40;;;;;;5030113;28;20472;-64
2024/02/25 02:13:45;;;;;;;0.43;0.43;;;7.80;81.40;;;;;;5024353;28;20021;-64
2024/02/25 02:16:18;;;;;;;1.17;0.70;;;7.80;81.50;;;;;;5030858;28;20029;-64
2024/02/25 02:18:47;;;;;;;2.05;0.73;;;7.80;81.50;;;;;;5028465;28;20404;-64
2024/02/25 02:21:17;;;;;;;1.30;0.93;;;7.80;81.40;;;;;;5024237;28;20120;-64
2024/02/25 02:23:43;;;;;;;1.65;0.68;;;7.80;81.40;;;;;;5030720;28;20392;-63
2024/02/25 02:26:09;;;;;;;0.22;0.22;;;7.80;81.40;;;;;;5028717;28;20022;-63
2024/02/25 02:28:35;;;;;;;0.25;0.20;;;7.90;81.50;;;;;;5031373;28;20044;-64
2024/02/25 02:31:02;;;;;;;0.40;0.40;;;7.90;81.90;;;;;;5030876;28;20021;-66
2024/02/25 02:33:27;;;;;;;0.68;0.63;;;7.90;81.50;;;;;;5033824;28;20028;-66
2024/02/25 02:35:53;;;;;;;0.20;0.20;;;7.90;81.50;;;;;;5033284;28;20025;-66
2024/02/25 02:38:20;;;;;;;0.50;0.38;;;7.90;81.50;;;;;;5031836;28;20420;-66
2024/02/25 02:40:46;;;;;;;1.65;0.40;;;7.90;81.50;;;;;;5033437;28;20026;-66
2024/02/25 02:43:13;;;;;;;3.15;0.57;;;7.90;81.70;;;;;;5032840;28;20491;-66
2024/02/25 02:45:43;;;;;;;3.28;0.65;;;7.90;81.80;;;;;;5032797;28;20495;-67
2024/02/25 02:48:09;;;;;;;0.68;0.68;;;7.90;81.90;;;;;;5033092;28;20480;-66
2024/02/25 02:50:36;;;;;;;0.60;0.30;;;7.90;82.00;;;;;;5033302;28;20105;-66
2024/02/25 02:53:03;;;;;;;1.00;0.68;;;7.80;82.20;;;;;;5033571;28;20063;-66
2024/02/25 02:55:29;;;;;;;0.90;0.63;;;7.80;82.30;;;;;;5033454;28;20025;-67
2024/02/25 02:57:55;;;;;;;1.55;0.60;;;7.80;82.40;;;;;;5033368;28;20125;-66
2024/02/25 03:00:21;;;;;;;0.30;0.30;;;7.80;82.30;;;;;;5033097;28;20104;-67
2024/02/25 03:02:47;;;;;;;0.60;0.52;;;7.90;82.30;;;;;;5033275;28;20032;-66
2024/02/25 03:05:13;;;;;;;0.77;0.30;;;7.90;82.30;;;;;;5033285;28;20412;-67
2024/02/25 03:07:39;;;;;;;0.30;0.30;;;8.00;82.30;;;;;;5037248;28;20034;-67
2024/02/25 03:10:06;;;;;;;0.32;0.22;;;8.00;82.20;;;;;;5033788;28;20443;-67
2024/02/25 03:12:32;;;;;;;0.43;0.43;;;8.00;82.20;;;;;;5033377;28;20101;-66
2024/02/25 03:14:58;;;;;;;0.90;0.73;;;8.00;82.20;;;;;;5043569;28;20025;-66
2024/02/25 03:17:25;;;;;;;0.52;0.50;;;8.10;82.20;;;;;;5021165;28;20049;-66
2024/02/25 03:19:51;;;;;;;0.47;0.47;;;8.10;82.10;;;;;;5033139;28;20037;-66
2024/02/25 03:22:16;;;;;;;0.75;0.40;;;8.10;82.10;;;;;;5032770;28;20033;-66
2024/02/25 03:24:43;;;;;;;4.70;0.50;;;8.10;82.10;;;;;;5039495;28;20231;-66
2024/02/25 03:27:09;;;;;;;0.32;0.30;;;8.10;82.10;;;;;;5032732;28;20500;-66
2024/02/25 03:29:34;;;;;;;0.30;0.30;;;8.10;82.10;;;;;;5032571;28;20033;-66
2024/02/25 03:32:00;;;;;;;0.50;0.50;;;8.10;82.20;;;;;;5031842;28;20030;-66
2024/02/25 03:34:27;;;;;;;0.30;0.30;;;8.10;82.20;;;;;;5032588;28;20046;-66
2024/02/25 03:36:53;;;;;;;0.40;0.40;;;8.10;82.10;;;;;;5032671;28;20060;-67
2024/02/25 03:39:20;;;;;;;0.85;0.45;;;8.20;82.20;;;;;;5027645;28;20481;-66
2024/02/25 03:41:46;;;;;;;0.40;0.40;;;8.20;82.20;;;;;;5032882;28;20045;-67
2024/02/25 03:44:12;;;;;;;0.30;0.30;;;8.10;82.10;;;;;;5031947;28;20497;-66
2024/02/25 03:46:41;;;;;;;0.32;0.32;;;8.10;82.10;;;;;;5032141;28;20049;-66
2024/02/25 03:49:07;;;;;;;0.35;0.35;;;8.10;82.10;;;;;;5030449;28;20084;-66
2024/02/25 03:51:39;;;;;;;0.75;0.55;;;8.10;82.20;;;;;;5030484;28;20053;-66
2024/02/25 03:54:05;;;;;;;0.35;0.35;;;8.20;82.30;;;;;;5031455;28;20021;-66
2024/02/25 03:56:31;;;;;;;0.30;0.22;;;8.10;82.30;;;;;;5030865;28;20333;-66
2024/02/25 03:58:58;;;;;;;1.23;0.50;;;8.10;82.40;;;;;;5031053;28;20056;-66
2024/02/25 04:01:24;;;;;;;0.35;0.30;;;8.00;82.40;;;;;;5029429;28;20033;-64
2024/02/25 04:03:50;;;;;;;0.52;0.52;;;8.10;82.60;;;;;;5030310;28;20579;-64
2024/02/25 04:06:16;;;;;;;0.38;0.28;;;8.10;82.60;;;;;;5030031;28;20024;-63
2024/02/25 04:08:42;;;;;;;0.35;0.35;;;8.10;82.60;;;;;;5029478;28;20029;-64
2024/02/25 04:11:08;;;;;;;0.85;0.52;;;8.10;82.60;;;;;;5029632;28;20099;-63
2024/02/25 04:13:34;;;;;;;0.30;0.30;;;8.10;82.60;;;;;;5032086;28;20113;-63
2024/02/25 04:16:00;;;;;;;0.30;0.30;;;8.10;82.60;;;;;;5030595;28;20041;-63
2024/02/25 04:18:26;;;;;;;0.43;0.43;;;8.10;82.90;;;;;;5028318;28;20604;-63
2024/02/25 04:20:52;;;;;;;0.30;0.30;;;8.00;83.00;;;;;;5027846;28;20504;-63
2024/02/25 04:23:19;;;;;;;0.98;0.60;;;8.10;83.00;;;;;;5025654;28;20557;-64
2024/02/25 04:25:45;;;;;;;2.33;0.70;;;8.10;83.00;;;;;;5028968;28;20477;-63
2024/02/25 04:28:12;;;;;;;2.20;0.30;;;8.00;83.00;;;;;;5032314;28;20037;-63
2024/02/25 04:30:38;;;;;;;0.95;0.47;;;8.10;83.10;;;;;;5028684;28;20087;-64
2024/02/25 04:33:04;;;;;;;0.30;0.20;;;8.00;83.30;;;;;;5026302;28;20030;-64
2024/02/25 04:35:31;;;;;;;0.47;0.30;;;8.00;83.30;;;;;;5024787;28;20460;-63
2024/02/25 04:37:57;;;;;;;0.32;0.32;;;8.00;83.30;;;;;;5031208;28;20025;-63
2024/02/25 04:40:24;;;;;;;0.20;0.20;;;8.00;83.90;;;;;;5021497;28;20032;-63
2024/02/25 04:42:50;;;;;;;0.73;0.20;;;8.00;83.30;;;;;;5029225;28;20163;-63
2024/02/25 04:45:16;;;;;;;0.20;0.20;;;8.00;83.20;;;;;;5027091;28;20116;-64
2024/02/25 04:47:42;;;;;;;1.55;0.20;;;8.10;83.20;;;;;;5027426;28;20050;-63
2024/02/25 04:50:09;;;;;;;0.80;0.38;;;8.10;83.10;;;;;;5028616;28;20025;-63
2024/02/25 04:52:35;;;;;;;0.20;0.20;;;8.00;83.20;;;;;;5026723;28;20531;-63
2024/02/25 04:55:01;;;;;;;0.40;0.40;;;8.00;83.40;;;;;;5031207;28;20036;-66
2024/02/25 04:57:27;;;;;;;0.28;0.28;;;8.00;83.40;;;;;;5033433;28;20116;-67
2024/02/25 04:59:53;;;;;;;0.30;0.20;;;8.00;83.50;;;;;;5031918;28;20037;-66
2024/02/25 05:02:19;;;;;;;0.20;0.20;;;7.90;83.50;;;;;;5030272;28;20104;-67
2024/02/25 05:04:45;;;;;;;0.20;0.20;;;7.90;83.60;;;;;;5035242;28;20025;-64
2024/02/25 05:07:11;;;;;;;0.63;0.30;;;7.90;83.60;;;;;;5032335;28;20037;-63
2024/02/25 05:09:37;;;;;;;0.85;0.47;;;8.00;83.60;;;;;;5031316;28;20025;-66
2024/02/25 05:12:04;;;;;;;0.90;0.30;;;7.90;83.50;;;;;;5034929;28;20444;-66
2024/02/25 05:14:30;;;;;;;0.30;0.30;;;8.00;83.70;;;;;;5031517;28;20026;-67
2024/02/25 05:16:56;;;;;;;0.40;0.40;;;7.90;83.50;;;;;;5031286;28;20036;-66
2024/02/25 05:19:22;;;;;;;0.40;0.40;;;7.90;83.50;;;;;;5030755;28;20029;-66
2024/02/25 05:21:48;;;;;;;0.55;0.30;;;8.00;83.60;;;;;;5033100;28;20028;-66
2024/02/25 05:24:14;;;;;;;0.85;0.40;;;8.00;83.50;;;;;;5047186;28;20029;-66
2024/02/25 05:26:40;;;;;;;0.50;0.40;;;8.00;83.50;;;;;;5031004;28;20462;-66
2024/02/25 05:29:06;;;;;;;0.20;0.20;;;8.00;83.60;;;;;;5027823;28;20033;-66
2024/02/25 05:31:32;;;;;;;0.32;0.32;;;7.90;83.60;;;;;;5031064;28;20489;-66
2024/02/25 05:33:58;;;;;;;0.35;0.35;;;7.90;83.70;;;;;;5031363;28;20024;-66
2024/02/25 05:36:25;;;;;;;0.25;0.20;;;7.90;83.80;;;;;;5013215;28;20078;-66
2024/02/25 05:38:51;;;;;;;0.45;0.40;;;8.00;83.90;;;;;;5031031;28;20079;-66
2024/02/25 05:41:17;;;;;;;1.52;0.50;;;8.00;84.00;;;;;;5034099;28;20029;-66
2024/02/25 05:43:46;;;;;;;0.75;0.47;;;8.00;83.90;;;;;;5034800;28;20040;-66
2024/02/25 05:46:13;;;;;;;0.60;0.50;;;8.00;83.80;;;;;;5027941;28;20450;-66
2024/02/25 05:48:39;;;;;;;0.52;0.50;;;8.00;83.90;;;;;;5033114;28;20116;-66
2024/02/25 05:51:07;;;;;;;0.65;0.55;;;8.00;83.90;;;;;;5034745;28;20445;-66
2024/02/25 05:53:33;;;;;;;0.47;0.40;;;8.00;83.90;;;;;;5034521;28;20388;-66
2024/02/25 05:55:58;;;;;;;1.02;0.47;;;8.00;84.00;;;;;;5034861;28;20036;-66
2024/02/25 05:58:25;;;;;;;0.77;0.60;;;8.00;84.10;;;;;;5035706;28;20033;-66
2024/02/25 06:00:50;;;;;;;0.50;0.50;;;8.00;84.10;;;;;;5033115;28;20049;-63
2024/02/25 06:03:16;;;;;;;1.15;0.50;;;8.00;84.20;;;;;;5030410;28;20038;-63
2024/02/25 06:05:42;;;;;;;0.35;0.35;;;8.00;84.20;;;;;;5032078;28;20049;-63
2024/02/25 06:08:08;;;;;;;1.02;0.50;;;8.10;84.20;;;;;;5032645;28;20468;-63
2024/02/25 06:10:34;;;;;;;0.60;0.52;;;8.00;84.70;;;;;;5029130;28;20034;-63
2024/02/25 06:13:00;;;;;;;0.60;0.60;;;8.00;84.50;;;;;;5033558;28;20029;-63
2024/02/25 06:15:25;;;;;;;0.60;0.60;;;7.90;84.70;;;;;;5031909;28;20026;-63
2024/02/25 06:17:51;;;;;;;0.40;0.40;;;7.90;84.70;;;;;;5031535;28;20030;-63
2024/02/25 06:20:17;;;;;;;0.95;0.65;;;8.00;84.90;;;;;;5029951;28;20025;-63
2024/02/25 06:22:43;;;;;;;1.35;0.60;;;8.00;85.00;;;;;;5032592;28;20037;-63
2024/02/25 06:25:09;;;;;;;0.73;0.60;;;8.00;85.00;;;;;;5031061;28;20029;-63
2024/02/25 06:27:35;;;;;;;0.77;0.60;;;8.00;84.90;;;;;;5034510;28;20041;-63
2024/02/25 06:30:04;;;;;;;1.15;0.75;;;8.00;84.90;;;;;;5029708;28;20017;-63
2024/02/25 06:32:31;;;;;;;0.68;0.57;;;8.00;84.90;;;;;;5030307;28;20091;-62
2024/02/25 06:34:58;;;;;;;1.00;0.70;;;8.00;84.80;;;;;;5028825;28;20407;-62
2024/02/25 06:37:26;;;;;;;1.20;0.50;;;8.00;84.90;;;;;;5030170;28;20033;-62
2024/02/25 06:39:52;;;;;;;0.47;0.30;;;8.10;84.90;;;;;;5029764;28;20044;-66
2024/02/25 06:42:18;;;;;;;1.25;0.60;;;8.10;84.80;;;;;;5032775;28;20037;-62
2024/02/25 06:44:46;;;;;;;0.63;0.30;;;8.10;84.80;;;;;;5031315;28;20034;-66
2024/02/25 06:47:12;;;;;;;0.95;0.50;;;8.10;84.80;;;;;;5033176;28;20058;-66
2024/02/25 06:49:40;;;;;;;0.98;0.85;;;8.00;84.90;;;;;;5033532;28;20116;-62
2024/02/25 06:52:07;;;;;;;0.50;0.20;;;8.00;84.90;;;;;;5026059;28;20428;-62
2024/02/25 06:54:33;;;;;;;0.68;0.50;;;8.00;84.90;;;;;;5032123;28;20434;-66
2024/02/25 06:56:59;;;;;;;1.27;0.68;;;8.10;84.90;;;;;;5033358;28;20061;-66
2024/02/25 06:59:24;;;;;;;0.50;0.47;;;8.10;84.90;;;;;;5033403;28;20449;-66
2024/02/25 07:01:50;;;;;;;1.17;0.80;;;8.00;85.00;;;;;;5033499;28;20045;-66
2024/02/25 07:04:16;;;;;;;0.68;0.55;;;8.00;85.10;;;;;;5033689;28;20461;-66
2024/02/25 07:06:42;;;;;;;0.38;0.38;;;8.10;85.20;;;;;;5021025;28;20030;-66
2024/02/25 07:09:08;;;;;;;1.75;0.65;;;8.00;85.10;;;;;;5033238;28;20028;-66
2024/02/25 07:11:34;;;;;;;1.00;0.90;;;8.00;85.20;;;;;;5033353;28;20034;-66
2024/02/25 07:14:00;;;;;;;1.20;0.65;;;8.00;85.30;;;;;;5033348;28;20401;-66
2024/02/25 07:16:26;;;;;;;0.63;0.60;;;8.00;85.30;;;;;;5033352;28;20178;-66
2024/02/25 07:18:52;;;;;;;0.85;0.65;;;8.10;85.40;;;;;;5033402;28;20033;-66
2024/02/25 07:21:18;;;;;;;1.15;0.70;;;8.10;85.20;;;;;;5045425;28;20086;-66
2024/02/25 07:23:43;;;;;;;1.10;0.93;;;8.20;85.20;;;;;;5032632;28;20057;-65
2024/02/25 07:26:10;;;;;;;1.48;0.60;;;8.20;85.20;;;;;;5031648;28;20021;-66
2024/02/25 07:28:40;;;;;;;0.70;0.43;;;8.20;85.40;;;;;;5032988;28;20084;-66
2024/02/25 07:31:16;;;;;;;1.33;0.68;;;8.20;85.00;;;;;;5032535;28;20457;-65
2024/02/25 07:33:42;;;;;;;0.70;0.60;;;8.20;85.00;;;;;;5029924;28;20037;-62
2024/02/25 07:36:12;;;;;;;1.30;0.93;;;8.20;85.20;;;;;;5024569;28;20458;-62
2024/02/25 07:38:39;;;;;;;0.30;0.30;;;8.20;85.40;;;;;;5024892;28;20060;-62
2024/02/25 07:41:05;;;;;;;1.02;0.60;;;8.20;85.50;;;;;;5031715;28;20021;-62
2024/02/25 07:43:33;;;;;;;0.80;0.50;;;8.20;85.50;;;;;;5031841;28;20120;-62
2024/02/25 07:45:58;;;;;;;2.33;1.85;;;8.20;85.40;;;;;;5027656;28;20127;-62
2024/02/25 07:48:24;;;;;;;1.60;0.98;;;8.30;85.70;;;;;;5029391;28;20034;-65
2024/02/25 07:50:50;;;;;;;3.65;0.95;;;8.20;85.60;;;;;;5032679;28;20543;-62
2024/02/25 07:53:15;;;;;;;0.90;0.85;;;8.20;85.70;;;;;;5028153;28;20083;-65
2024/02/25 07:55:41;;;;;;;0.68;0.68;;;8.30;85.60;;;;;;5025412;28;20045;-62
2024/02/25 07:58:07;;;;;;;4.35;1.15;;;8.30;85.50;;;;;;5029479;28;20033;-62
2024/02/25 08:00:33;;;;;;;0.70;0.70;;;8.30;85.50;;;;;;5035875;28;20108;-62
2024/02/25 08:03:00;;;;;;;0.93;0.75;;;8.40;85.50;;;;;;5037281;28;20564;-62
2024/02/25 08:05:25;;;;;;;1.77;0.98;;;8.40;85.50;;;;;;5028893;28;20037;-63
2024/02/25 08:07:52;;;;;;;1.20;1.02;;;8.40;85.60;;;;;;5028386;28;20041;-65
2024/02/25 08:10:22;;;;;;;0.82;0.70;;;8.40;85.50;;;;;;5032640;28;20026;-67
2024/02/25 08:12:48;;;;;;;0.52;0.50;;;8.50;85.50;;;;;;5031206;28;20034;-66
2024/02/25 08:15:14;;;;;;;4.50;0.50;;;8.50;85.40;;;;;;5028983;28;20559;-66
2024/02/25 08:17:40;;;;;;;1.33;0.93;;;8.50;85.40;;;;;;5031535;28;20029;-67
2024/02/25 08:20:06;;;;;;;1.45;0.70;;;8.50;85.50;;;;;;5022387;28;20385;-67
2024/02/25 08:22:34;;;;;;;1.33;0.82;;;8.50;85.60;;;;;;5030331;28;20538;-66
2024/02/25 08:25:00;;;;;;;1.17;0.98;;;8.50;85.50;;;;;;5031489;28;20080;-66
2024/02/25 08:27:29;;;;;;;1.05;0.77;;;8.40;85.60;;;;;;5030968;28;20092;-67
2024/02/25 08:29:58;;;;;;;1.30;1.10;;;8.50;85.70;;;;;;5029842;28;20021;-67
2024/02/25 08:32:24;;;;;;;0.88;0.70;;;8.50;85.70;;;;;;5031077;28;20029;-66
2024/02/25 08:34:53;;;;;;;1.60;1.23;;;8.50;85.60;;;;;;5029137;28;20044;-66
2024/02/25 08:37:28;;;;;;;1.77;0.75;;;8.60;85.60;;;;;;5028958;28;20496;-66
2024/02/25 08:39:54;;;;;;;1.58;1.10;;;8.70;85.50;;;;;;5023758;28;20029;-66
2024/02/25 08:42:21;;;;;;;1.55;0.68;;;8.70;85.30;;;;;;5031424;28;20088;-66
2024/02/25 08:44:47;;;;;;;4.35;1.33;;;8.70;85.20;;;;;;5032174;28;20388;-69
2024/02/25 08:47:13;;;;;;;1.00;0.90;;;8.70;85.20;;;;;;5029529;28;20060;-65
2024/02/25 08:49:39;;;;;;;2.97;0.77;;;8.70;85.20;;;;;;5023590;28;20108;-64
2024/02/25 08:52:05;;;;;;;2.28;0.98;;;8.60;85.20;;;;;;5024117;28;20110;-64
2024/02/25 08:54:31;;;;;;;0.60;0.60;;;8.50;85.20;;;;;;5028613;28;20384;-64
2024/02/25 08:56:57;;;;;;;0.68;0.50;;;8.50;85.30;;;;;;5024090;28;20072;-64
2024/02/25 08:59:24;;;;;;;0.70;0.70;;;8.50;85.30;;;;;;5031068;28;20056;-64
2024/02/25 09:01:50;;;;;;;0.85;0.80;;;8.50;85.20;;;;;;5028601;28;20025;-64
2024/02/25 09:04:16;;;;;;;0.57;0.50;;;8.50;84.90;;;;;;5029224;28;20033;-63
2024/02/25 09:06:41;;;;;;;1.33;0.55;;;8.50;84.90;;;;;;5024928;28;20095;-63
2024/02/25 09:09:07;;;;;;;0.93;0.60;;;8.40;84.70;;;;;;5008510;28;20025;-63
2024/02/25 09:11:33;;;;;;;0.47;0.40;;;8.40;84.70;;;;;;5024655;28;20500;-63
2024/02/25 09:13:58;;;;;;;1.10;0.47;;;8.40;84.60;;;;;;5036859;28;20092;-63
2024/02/25 09:16:24;;;;;;;0.65;0.50;;;8.50;84.60;;;;;;5016731;28;20030;-63
2024/02/25 09:18:50;;;;;;;0.45;0.45;;;8.50;84.60;;;;;;5030478;28;20029;-63
2024/02/25 09:21:15;;;;;;;0.57;0.35;;;8.50;84.40;;;;;;5039291;28;20048;-67
2024/02/25 09:23:42;;;;;;;4.40;0.50;;;8.60;84.40;;;;;;5046609;28;20505;-67
2024/02/25 09:26:08;;;;;;;1.65;1.00;;;8.60;84.30;;;;;;5044866;28;20575;-67
2024/02/25 09:28:34;;;;;;;1.65;0.90;;;8.70;84.30;;;;;;5041352;28;20328;-67
2024/02/25 09:31:00;;;;;;;1.08;0.85;;;8.70;84.10;;;;;;5041028;28;20026;-67
2024/02/25 09:33:29;;;;;;;1.20;0.80;;;8.80;84.10;;;;;;5056002;28;20026;-67
2024/02/25 09:35:56;;;;;;;0.98;0.80;;;8.80;84.30;;;;;;5039966;28;20037;-67
2024/02/25 09:38:22;;;;;;;0.77;0.75;;;8.90;84.30;;;;;;5024728;28;20505;-63
2024/02/25 09:40:58;;;;;;;1.65;1.23;;;9.00;84.10;;;;;;5029312;28;20040;-63
2024/02/25 09:43:24;;;;;;;0.80;0.80;;;9.10;84.10;;;;;;5025360;28;20041;-64
2024/02/25 09:45:53;;;;;;;1.02;0.90;;;9.20;84.10;;;;;;5020311;28;20473;-63
2024/02/25 09:48:20;;;;;;;1.10;0.95;;;9.30;84.00;;;;;;5026584;28;20044;-63
2024/02/25 09:50:49;;;;;;;1.48;0.90;;;9.40;83.90;;;;;;5029339;28;20091;-63
2024/02/25 09:53:15;;;;;;;0.85;0.85;;;9.50;83.70;;;;;;5026155;28;20018;-63
2024/02/25 09:55:43;;;;;;;0.88;0.60;;;9.50;83.90;;;;;;5030651;28;20561;-63
2024/02/25 09:58:09;;;;;;;0.57;0.52;;;9.50;83.20;;;;;;5038901;28;20033;-67
2024/02/25 10:00:34;;;;;;;4.40;0.60;;;9.50;83.30;;;;;;5043586;28;20029;-67
2024/02/25 10:03:00;;;;;;;1.33;0.57;;;9.50;83.30;;;;;;5031847;28;20124;-67
2024/02/25 10:05:26;;;;;;;1.08;0.73;;;9.60;83.20;;;;;;5031819;28;20497;-67
2024/02/25 10:08:03;;;;;;;2.83;0.85;;;9.60;83.00;;;;;;5037856;28;20384;-69
2024/02/25 10:10:31;;;;;;;0.85;0.73;;;9.50;82.80;;;;;;5029086;28;20090;-70
2024/02/25 10:12:59;;;;;;;0.80;0.57;;;9.50;83.50;;;;;;5024195;28;20110;-67
2024/02/25 10:15:24;;;;;;;0.70;0.63;;;9.40;83.20;;;;;;5037590;28;20477;-67
2024/02/25 10:17:51;;;;;;;0.63;0.47;;;9.40;83.00;;;;;;5032807;28;20040;-67
2024/02/25 10:20:17;;;;;;;0.88;0.57;;;9.50;82.70;;;;;;5029178;28;20044;-67
2024/02/25 10:22:42;;;;;;;1.05;0.63;;;9.60;82.20;;;;;;5036226;28;20497;-67
2024/02/25 10:25:08;;;;;;;0.57;0.57;;;9.70;81.80;;;;;;5033900;28;20452;-68
2024/02/25 10:27:34;;;;;;;0.73;0.73;;;9.70;81.20;;;;;;5025983;28;20091;-63
2024/02/25 10:30:01;;;;;;;0.80;0.47;;;9.70;81.10;;;;;;5023117;28;20033;-63
2024/02/25 10:32:31;;;;;;;0.70;0.50;;;9.80;81.00;;;;;;5028114;28;20509;-64
2024/02/25 10:34:59;;;;;;;0.50;0.43;;;9.90;81.10;;;;;;5027337;28;20120;-64
2024/02/25 10:37:27;;;;;;;0.60;0.60;;;9.90;80.40;;;;;;5036843;28;20117;-66
2024/02/25 10:40:05;;;;;;;0.52;0.52;;;9.90;80.50;;;;;;5035161;28;20036;-64
2024/02/25 10:42:32;;;;;;;0.68;0.60;;;9.90;80.30;;;;;;5023245;28;20037;-68
2024/02/25 10:44:59;;;;;;;0.95;0.82;;;10.00;80.60;;;;;;5020809;28;20055;-67
2024/02/25 10:47:27;;;;;;;0.57;0.50;;;10.00;80.40;;;;;;5038038;28;20170;-64
2024/02/25 10:49:56;;;;;;;1.20;0.73;;;10.10;80.20;;;;;;5033405;28;20532;-69
2024/02/25 10:52:28;;;;;;;1.13;1.00;;;10.10;80.00;;;;;;5033260;28;20029;-68
2024/02/25 10:54:57;;;;;;;;;;;10.00;80.10;;;;;;5031219;28;20068;-70
2024/02/25 10:57:23;;;;;;;0.88;0.70;;;10.00;80.00;;;;;;5035836;28;20370;-68
2024/02/25 10:59:49;;;;;;;3.40;1.17;;;9.90;80.30;;;;;;5027515;28;20033;-67
2024/02/25 11:02:17;;;;;;;2.25;1.63;;;9.90;80.20;;;;;;5029316;28;20029;-67
2024/02/25 11:04:46;;;;;;;1.25;1.10;;;9.90;80.30;;;;;;5037622;28;20399;-68
2024/02/25 11:07:14;;;;;;;1.25;1.10;;;9.90;80.60;;;;;;5032065;28;20029;-68
2024/02/25 11:09:41;;;;;;;1.20;1.10;;;9.90;80.60;;;;;;5026591;28;20029;-67
2024/02/25 11:12:27;;;;;;;1.55;1.10;;;9.90;80.70;;;;;;5043316;28;20026;-66
2024/02/25 11:14:59;;;;;;;0.88;0.77;;;9.90;80.60;;;;;;5019669;28;20042;-68
2024/02/25 11:17:29;;;;;;;0.95;0.88;;;9.90;80.80;;;;;;5033429;28;20025;-68
2024/02/25 11:20:08;;;;;;;1.98;1.45;;;9.90;80.70;;;;;;5029576;28;20107;-68
2024/02/25 11:22:49;;;;;;;2.97;1.00;;;9.90;80.80;;;;;;5031288;28;20392;-69
2024/02/25 11:25:29;;;;;;;5.50;1.50;;;10.00;80.90;;;;;;5022953;28;20025;-67
2024/02/25 11:27:56;;;;;;;1.98;1.38;;;10.00;81.00;;;;;;5038283;28;20021;-66
2024/02/25 11:30:23;;;;;;;1.60;1.23;;;9.90;81.00;;;;;;5020510;28;20661;-64
2024/02/25 11:32:49;;;;;;;0.80;0.70;;;9.90;81.10;;;;;;5026064;28;20030;-64
2024/02/25 11:35:23;;;;;;;1.90;1.50;;;9.90;81.10;;;;;;5021652;28;20037;-65
2024/02/25 11:37:49;;;;;;;2.58;1.77;;;9.90;81.30;;;;;;5024855;28;20027;-65
2024/02/25 11:40:16;;;;;;;6.28;1.77;;;9.90;81.20;;;;;;5037958;28;20042;-64
2024/02/25 11:42:42;;;;;;;2.53;1.48;;;9.80;81.30;;;;;;5036415;28;20137;-65
2024/02/25 11:45:10;;;;;;;2.22;1.40;;;9.80;81.60;;;;;;5035203;28;20134;-64
2024/02/25 11:47:37;;;;;;;2.33;1.45;;;9.90;81.60;;;;;;5028304;28;20136;-64
2024/02/25 11:50:03;;;;;;;1.83;1.30;;;9.90;81.60;;;;;;5036645;28;20037;-64
2024/02/25 11:52:28;;;;;;;1.83;1.30;;;10.00;81.70;;;;;;5021686;28;20468;-65
2024/02/25 11:54:54;;;;;;;1.77;1.50;;;10.00;81.70;;;;;;5026336;28;20082;-64
2024/02/25 11:57:20;;;;;;;1.17;1.00;;;10.00;81.70;;;;;;5030286;28;20025;-65
2024/02/25 11:59:47;;;;;;;1.13;0.90;;;10.10;81.70;;;;;;5027776;28;20025;-64
2024/02/25 12:02:13;;;;;;;1.55;0.98;;;10.10;81.60;;;;;;5024055;28;20037;-64
2024/02/25 12:04:38;;;;;;;1.60;1.30;;;10.20;81.70;;;;;;5004234;28;20455;-66
2024/02/25 12:07:04;;;;;;;1.83;1.13;;;10.30;81.70;;;;;;5026257;28;20024;-64
2024/02/25 12:09:30;;;;;;;2.10;1.58;;;10.30;81.70;;;;;;5025783;28;20033;-64
2024/02/25 12:11:56;;;;;;;2.22;1.80;;;10.40;81.80;;;;;;5027912;28;20385;-64
2024/02/25 12:14:22;;;;;;;1.98;1.73;;;10.40;81.70;;;;;;5026166;28;20032;-65
2024/02/25 12:16:50;;;;;;;2.67;1.65;;;10.40;81.50;;;;;;5029320;28;20064;-65
2024/02/25 12:19:17;;;;;;;2.65;1.65;;;10.50;81.50;;;;;;5030359;28;20025;-65
2024/02/25 12:21:54;;;;;;;2.08;1.00;;;10.40;81.20;;;;;;5027508;28;20079;-67
2024/02/25 12:24:20;;;;;;;2.08;1.50;;;10.40;81.40;;;;;;5022442;28;20021;-67
2024/02/25 12:26:54;;;;;;;1.40;1.20;;;10.50;81.30;;;;;;5024496;28;20030;-67
2024/02/25 12:29:21;;;;;;;1.30;1.08;;;10.60;81.20;;;;;;5030309;28;20033;-67
2024/02/25 12:31:47;;;;;;;2.33;0.93;;;10.70;80.90;;;;;;5029992;28;20044;-67
2024/02/25 12:34:13;;;;;;;1.55;1.00;;;10.70;80.70;;;;;;5024531;28;20099;-64
2024/02/25 12:36:46;;;;;;;4.65;1.83;;;10.80;80.80;;;;;;5023435;28;20029;-65
2024/02/25 12:39:15;;;;;;;3.45;1.50;;;11.00;80.20;;;;;;5025929;28;20347;-64
2024/02/25 12:41:41;;;;;;;2.83;1.60;;;11.00;80.00;;;;;;5024282;28;20041;-65
2024/02/25 12:44:11;;;;;;;2.25;1.20;;;11.10;79.80;;;;;;5018019;28;20037;-65
2024/02/25 12:46:37;;;;;;;2.15;1.30;;;11.20;79.70;;;;;;5025544;28;20103;-64
2024/02/25 12:49:12;;;;;;;0.88;0.75;;;11.40;79.40;;;;;;5022528;28;20033;-65
2024/02/25 12:51:38;;;;;;;3.08;1.17;;;11.70;79.20;;;;;;5029926;28;20521;-64
2024/02/25 12:54:06;;;;;;;0.90;0.90;;;12.10;78.60;;;;;;5030323;28;20499;-64